sensor_id;sensor_type;location;lat;lon;timestamp;temperature;humidity
20246;DHT22;10281;54.406;18.556;2023-02-12T00:00:59;3.90;99.90
20246;DHT22;10281;54.406;18.556;2023-02-12T00:03:26;3.90;99.90
20246;DHT22;10281;54.406;18.556;2023-02-12T00:05:53;3.90;99.90
20246;DHT22;10281;54.406;18.556;2023-02-12T00:08:20;3.80;99.90
20246;DHT22;10281;54.406;18.556;2023-02-12T00:10:46;3.80;99.90
20246;DHT22;10281;54.406;18.556;2023-02-12T00:13:13;3.80;99.90
20246;DHT22;10281;54.406;18.556;2023-02-12T00:15:41;3.80;99.90
20246;DHT22;10281;54.406;18.556;2023-02-12T00:18:08;3.80;99.90
20246;DHT22;10281;54.406;18.556;2023-02-12T00:20:36;3.80;99.90
20246;DHT22;10281;54.406;18.556;2023-02-12T00:23:04;3.80;99.90
20246;DHT22;10281;54.406;18.556;2023-02-12T00:25:31;3.80;99.90
20246;DHT22;10281;54.406;18.556;2023-02-12T00:27:58;3.90;99.90
20246;DHT22;10281;54.406;18.556;2023-02-12T00:30:24;3.90;99.90
20246;DHT22;10281;54.406;18.556;2023-02-12T00:32:51;4.00;99.90
20246;DHT22;10281;54.406;18.556;2023-02-12T00:35:17;4.00;99.90
20246;DHT22;10281;54.406;18.556;2023-02-12T00:37:44;4.00;99.90
20246;DHT22;10281;54.406;18.556;2023-02-12T00:40:12;4.00;99.90
20246;DHT22;10281;54.406;18.556;2023-02-12T00:42:38;4.00;99.90
20246;DHT22;10281;54.406;18.556;2023-02-12T00:45:06;4.00;99.90
20246;DHT22;10281;54.406;18.556;2023-02-12T00:47:32;4.00;99.90
20246;DHT22;10281;54.406;18.556;2023-02-12T00:49:59;4.00;99.90
20246;DHT22;10281;54.406;18.556;2023-02-12T00:52:26;4.00;99.90
20246;DHT22;10281;54.406;18.556;2023-02-12T00:54:52;4.00;99.90
20246;DHT22;10281;54.406;18.556;2023-02-12T00:57:19;4.00;99.90
20246;DHT22;10281;54.406;18.556;2023-02-12T00:59:45;4.00;99.90
20246;DHT22;10281;54.406;18.556;2023-02-12T01:02:12;4.00;99.90
20246;DHT22;10281;54.406;18.556;2023-02-12T01:04:39;3.90;99.90
20246;DHT22;10281;54.406;18.556;2023-02-12T01:07:06;3.90;99.90
20246;DHT22;10281;54.406;18.556;2023-02-12T01:09:33;3.90;99.90
20246;DHT22;10281;54.406;18.556;2023-02-12T01:11:59;3.90;99.90
20246;DHT22;10281;54.406;18.556;2023-02-12T01:14:26;3.90;99.90
20246;DHT22;10281;54.406;18.556;2023-02-12T01:16:52;3.90;99.90
20246;DHT22;10281;54.406;18.556;2023-02-12T01:19:19;3.90;99.90
20246;DHT22;10281;54.406;18.556;2023-02-12T01:21:46;3.80;99.90
20246;DHT22;10281;54.406;18.556;2023-02-12T01:24:12;3.80;99.90
20246;DHT22;10281;54.406;18.556;2023-02-12T01:26:39;3.80;99.90
20246;DHT22;10281;54.406;18.556;2023-02-12T01:29:07;3.70;99.90
20246;DHT22;10281;54.406;18.556;2023-02-12T01:31:37;3.70;99.90
20246;DHT22;10281;54.406;18.556;2023-02-12T01:34:06;3.60;99.90
20246;DHT22;10281;54.406;18.556;2023-02-12T01:36:33;3.60;99.90
20246;DHT22;10281;54.406;18.556;2023-02-12T01:39:01;3.50;99.90
20246;DHT22;10281;54.406;18.556;2023-02-12T01:41:33;3.40;99.90
20246;DHT22;10281;54.406;18.556;2023-02-12T01:44:24;3.30;99.90
20246;DHT22;10281;54.406;18.556;2023-02-12T01:46:58;3.30;99.90
20246;DHT22;10281;54.406;18.556;2023-02-12T01:49:37;3.20;99.90
20246;DHT22;10281;54.406;18.556;2023-02-12T01:54:39;3.10;99.90
20246;DHT22;10281;54.406;18.556;2023-02-12T01:57:08;3.00;99.90
20246;DHT22;10281;54.406;18.556;2023-02-12T01:59:36;3.00;99.90
20246;DHT22;10281;54.406;18.556;2023-02-12T02:02:04;2.90;99.90
20246;DHT22;10281;54.406;18.556;2023-02-12T02:04:36;2.90;99.90
20246;DHT22;10281;54.406;18.556;2023-02-12T02:07:02;2.80;99.90
20246;DHT22;10281;54.406;18.556;2023-02-12T02:09:32;2.70;99.90
20246;DHT22;10281;54.406;18.556;2023-02-12T02:12:00;2.70;99.90
20246;DHT22;10281;54.406;18.556;2023-02-12T02:14:32;2.60;99.90
20246;DHT22;10281;54.406;18.556;2023-02-12T02:17:41;2.60;99.90
20246;DHT22;10281;54.406;18.556;2023-02-12T02:20:05;2.50;99.90
20246;DHT22;10281;54.406;18.556;2023-02-12T02:31:03;2.30;99.90
20246;DHT22;10281;54.406;18.556;2023-02-12T02:36:28;2.20;99.90
20246;DHT22;10281;54.406;18.556;2023-02-12T02:39:00;2.00;99.90
20246;DHT22;10281;54.406;18.556;2023-02-12T02:41:38;2.00;99.90
20246;DHT22;10281;54.406;18.556;2023-02-12T02:44:11;2.00;99.90
20246;DHT22;10281;54.406;18.556;2023-02-12T02:46:43;1.80;99.90
20246;DHT22;10281;54.406;18.556;2023-02-12T02:49:15;1.80;99.90
20246;DHT22;10281;54.406;18.556;2023-02-12T02:51:44;1.70;99.90
20246;DHT22;10281;54.406;18.556;2023-02-12T02:54:16;1.70;99.90
20246;DHT22;10281;54.406;18.556;2023-02-12T02:56:46;1.60;99.90
20246;DHT22;10281;54.406;18.556;2023-02-12T02:59:20;1.60;99.90
20246;DHT22;10281;54.406;18.556;2023-02-12T03:01:51;1.60;99.90
20246;DHT22;10281;54.406;18.556;2023-02-12T03:04:21;1.40;99.90
20246;DHT22;10281;54.406;18.556;2023-02-12T03:06:55;1.30;99.90
20246;DHT22;10281;54.406;18.556;2023-02-12T03:09:35;1.20;99.90
20246;DHT22;10281;54.406;18.556;2023-02-12T03:12:09;1.10;99.90
20246;DHT22;10281;54.406;18.556;2023-02-12T03:14:40;1.10;99.90
20246;DHT22;10281;54.406;18.556;2023-02-12T03:17:16;1.10;99.90
20246;DHT22;10281;54.406;18.556;2023-02-12T03:19:49;1.10;99.90
20246;DHT22;10281;54.406;18.556;2023-02-12T03:22:19;1.00;99.90
20246;DHT22;10281;54.406;18.556;2023-02-12T03:24:52;0.90;99.90
20246;DHT22;10281;54.406;18.556;2023-02-12T03:27:27;0.90;99.90
20246;DHT22;10281;54.406;18.556;2023-02-12T03:29:54;0.80;99.90
20246;DHT22;10281;54.406;18.556;2023-02-12T03:32:32;0.80;99.90
20246;DHT22;10281;54.406;18.556;2023-02-12T03:35:11;0.80;99.90
20246;DHT22;10281;54.406;18.556;2023-02-12T03:37:45;0.80;99.90
20246;DHT22;10281;54.406;18.556;2023-02-12T03:40:27;0.80;99.90
20246;DHT22;10281;54.406;18.556;2023-02-12T03:42:58;0.70;99.90
20246;DHT22;10281;54.406;18.556;2023-02-12T03:45:45;0.70;99.90
20246;DHT22;10281;54.406;18.556;2023-02-12T03:48:26;0.60;99.90
20246;DHT22;10281;54.406;18.556;2023-02-12T03:50:57;0.60;99.90
20246;DHT22;10281;54.406;18.556;2023-02-12T03:53:26;0.70;99.90
20246;DHT22;10281;54.406;18.556;2023-02-12T03:55:57;0.70;99.90
20246;DHT22;10281;54.406;18.556;2023-02-12T03:58:27;0.70;99.90
20246;DHT22;10281;54.406;18.556;2023-02-12T04:00:55;0.70;99.90
20246;DHT22;10281;54.406;18.556;2023-02-12T04:03:22;0.70;99.90
20246;DHT22;10281;54.406;18.556;2023-02-12T04:05:50;0.70;99.90
20246;DHT22;10281;54.406;18.556;2023-02-12T04:08:16;0.80;99.90
20246;DHT22;10281;54.406;18.556;2023-02-12T04:11:13;0.80;99.90
20246;DHT22;10281;54.406;18.556;2023-02-12T04:13:46;0.80;99.90
20246;DHT22;10281;54.406;18.556;2023-02-12T04:16:21;0.70;99.90
20246;DHT22;10281;54.406;18.556;2023-02-12T04:18:47;0.70;99.90
20246;DHT22;10281;54.406;18.556;2023-02-12T04:24:04;0.70;99.90
20246;DHT22;10281;54.406;18.556;2023-02-12T04:26:36;0.70;99.90
20246;DHT22;10281;54.406;18.556;2023-02-12T04:32:26;0.60;99.90
20246;DHT22;10281;54.406;18.556;2023-02-12T04:34:57;0.60;99.90
20246;DHT22;10281;54.406;18.556;2023-02-12T04:37:45;0.60;99.90
20246;DHT22;10281;54.406;18.556;2023-02-12T04:40:15;0.60;99.90
20246;DHT22;10281;54.406;18.556;2023-02-12T04:42:48;0.50;99.90
20246;DHT22;10281;54.406;18.556;2023-02-12T04:45:20;0.50;99.90
20246;DHT22;10281;54.406;18.556;2023-02-12T04:47:48;0.50;99.90
20246;DHT22;10281;54.406;18.556;2023-02-12T04:50:14;0.50;99.90
20246;DHT22;10281;54.406;18.556;2023-02-12T04:52:41;0.50;99.90
20246;DHT22;10281;54.406;18.556;2023-02-12T04:55:08;0.50;99.90
20246;DHT22;10281;54.406;18.556;2023-02-12T04:57:34;0.50;99.90
20246;DHT22;10281;54.406;18.556;2023-02-12T05:00:02;0.50;99.90
20246;DHT22;10281;54.406;18.556;2023-02-12T05:02:32;0.50;99.90
20246;DHT22;10281;54.406;18.556;2023-02-12T05:04:59;0.50;99.90
20246;DHT22;10281;54.406;18.556;2023-02-12T05:07:26;0.50;99.90
20246;DHT22;10281;54.406;18.556;2023-02-12T05:09:53;0.50;99.90
20246;DHT22;10281;54.406;18.556;2023-02-12T05:12:20;0.40;99.90
20246;DHT22;10281;54.406;18.556;2023-02-12T05:14:47;0.40;99.90
20246;DHT22;10281;54.406;18.556;2023-02-12T05:17:14;0.40;99.90
20246;DHT22;10281;54.406;18.556;2023-02-12T05:19:40;0.40;99.90
20246;DHT22;10281;54.406;18.556;2023-02-12T05:22:07;0.30;99.90
20246;DHT22;10281;54.406;18.556;2023-02-12T05:24:34;0.30;99.90
20246;DHT22;10281;54.406;18.556;2023-02-12T05:27:00;0.30;99.90
20246;DHT22;10281;54.406;18.556;2023-02-12T05:29:27;0.30;99.90
20246;DHT22;10281;54.406;18.556;2023-02-12T05:31:53;0.30;99.90
20246;DHT22;10281;54.406;18.556;2023-02-12T05:34:20;0.30;99.90
20246;DHT22;10281;54.406;18.556;2023-02-12T05:36:47;0.30;99.90
20246;DHT22;10281;54.406;18.556;2023-02-12T05:39:13;0.30;99.90
20246;DHT22;10281;54.406;18.556;2023-02-12T05:41:40;0.30;99.90
20246;DHT22;10281;54.406;18.556;2023-02-12T05:44:07;0.30;99.90
20246;DHT22;10281;54.406;18.556;2023-02-12T05:46:34;0.40;99.90
20246;DHT22;10281;54.406;18.556;2023-02-12T05:49:00;0.40;99.90
20246;DHT22;10281;54.406;18.556;2023-02-12T05:51:27;0.40;99.90
20246;DHT22;10281;54.406;18.556;2023-02-12T05:53:58;0.40;99.90
20246;DHT22;10281;54.406;18.556;2023-02-12T05:56:29;0.40;99.90
20246;DHT22;10281;54.406;18.556;2023-02-12T05:59:01;0.40;99.90
20246;DHT22;10281;54.406;18.556;2023-02-12T06:01:30;0.40;99.90
20246;DHT22;10281;54.406;18.556;2023-02-12T06:03:59;0.40;99.90
20246;DHT22;10281;54.406;18.556;2023-02-12T06:06:27;0.40;99.90
20246;DHT22;10281;54.406;18.556;2023-02-12T06:08:55;0.40;99.90
20246;DHT22;10281;54.406;18.556;2023-02-12T06:11:21;0.40;99.90
20246;DHT22;10281;54.406;18.556;2023-02-12T06:13:49;0.40;99.90
20246;DHT22;10281;54.406;18.556;2023-02-12T06:16:19;0.40;99.90
20246;DHT22;10281;54.406;18.556;2023-02-12T06:18:48;0.50;99.90
20246;DHT22;10281;54.406;18.556;2023-02-12T06:21:17;0.50;99.90
20246;DHT22;10281;54.406;18.556;2023-02-12T06:23:44;0.50;99.90
20246;DHT22;10281;54.406;18.556;2023-02-12T06:26:11;0.50;99.90
20246;DHT22;10281;54.406;18.556;2023-02-12T06:28:38;0.50;99.90
20246;DHT22;10281;54.406;18.556;2023-02-12T06:31:04;0.50;99.90
20246;DHT22;10281;54.406;18.556;2023-02-12T06:33:31;0.50;99.90
20246;DHT22;10281;54.406;18.556;2023-02-12T06:36:02;0.50;99.90
20246;DHT22;10281;54.406;18.556;2023-02-12T06:38:35;0.50;99.90
20246;DHT22;10281;54.406;18.556;2023-02-12T06:41:02;0.50;99.90
20246;DHT22;10281;54.406;18.556;2023-02-12T06:43:28;0.50;99.90
20246;DHT22;10281;54.406;18.556;2023-02-12T06:45:55;0.60;99.90
20246;DHT22;10281;54.406;18.556;2023-02-12T06:48:24;0.60;99.90
20246;DHT22;10281;54.406;18.556;2023-02-12T06:50:50;0.70;99.90
20246;DHT22;10281;54.406;18.556;2023-02-12T06:53:17;0.70;99.90
20246;DHT22;10281;54.406;18.556;2023-02-12T06:55:44;0.70;99.90
20246;DHT22;10281;54.406;18.556;2023-02-12T06:58:11;0.80;99.90
20246;DHT22;10281;54.406;18.556;2023-02-12T07:00:37;0.80;99.90
20246;DHT22;10281;54.406;18.556;2023-02-12T07:03:04;0.80;99.90
20246;DHT22;10281;54.406;18.556;2023-02-12T07:05:30;0.90;99.90
20246;DHT22;10281;54.406;18.556;2023-02-12T07:07:57;0.90;99.90
20246;DHT22;10281;54.406;18.556;2023-02-12T07:10:24;0.90;99.90
20246;DHT22;10281;54.406;18.556;2023-02-12T07:12:50;1.00;99.90
20246;DHT22;10281;54.406;18.556;2023-02-12T07:15:18;1.00;99.90
20246;DHT22;10281;54.406;18.556;2023-02-12T07:17:44;1.10;99.90
20246;DHT22;10281;54.406;18.556;2023-02-12T07:20:12;1.10;99.90
20246;DHT22;10281;54.406;18.556;2023-02-12T07:22:38;1.20;99.90
20246;DHT22;10281;54.406;18.556;2023-02-12T07:25:05;1.10;99.90
20246;DHT22;10281;54.406;18.556;2023-02-12T07:27:35;1.20;99.90
20246;DHT22;10281;54.406;18.556;2023-02-12T07:30:03;1.20;99.90
20246;DHT22;10281;54.406;18.556;2023-02-12T07:32:32;1.20;99.90
20246;DHT22;10281;54.406;18.556;2023-02-12T07:34:59;1.20;99.90
20246;DHT22;10281;54.406;18.556;2023-02-12T07:37:27;1.30;99.90
20246;DHT22;10281;54.406;18.556;2023-02-12T07:39:53;1.30;99.90
20246;DHT22;10281;54.406;18.556;2023-02-12T07:42:20;1.30;99.90
20246;DHT22;10281;54.406;18.556;2023-02-12T07:44:47;1.40;99.90
20246;DHT22;10281;54.406;18.556;2023-02-12T07:47:15;1.50;99.90
20246;DHT22;10281;54.406;18.556;2023-02-12T07:49:42;1.50;99.90
20246;DHT22;10281;54.406;18.556;2023-02-12T07:52:08;1.60;99.90
20246;DHT22;10281;54.406;18.556;2023-02-12T07:54:35;1.70;99.90
20246;DHT22;10281;54.406;18.556;2023-02-12T07:57:02;1.80;99.90
20246;DHT22;10281;54.406;18.556;2023-02-12T07:59:29;1.80;99.90
20246;DHT22;10281;54.406;18.556;2023-02-12T08:01:55;1.90;99.90
20246;DHT22;10281;54.406;18.556;2023-02-12T08:04:24;2.00;99.90
20246;DHT22;10281;54.406;18.556;2023-02-12T08:06:53;2.00;99.90
20246;DHT22;10281;54.406;18.556;2023-02-12T08:11:57;2.10;99.90
20246;DHT22;10281;54.406;18.556;2023-02-12T08:14:26;2.20;99.90
20246;DHT22;10281;54.406;18.556;2023-02-12T08:16:52;2.20;99.90
20246;DHT22;10281;54.406;18.556;2023-02-12T08:19:19;2.30;99.90
20246;DHT22;10281;54.406;18.556;2023-02-12T08:21:48;2.30;99.90
20246;DHT22;10281;54.406;18.556;2023-02-12T08:24:16;2.40;99.90
20246;DHT22;10281;54.406;18.556;2023-02-12T08:26:42;2.40;99.90
20246;DHT22;10281;54.406;18.556;2023-02-12T08:29:13;2.50;99.90
20246;DHT22;10281;54.406;18.556;2023-02-12T08:31:43;2.50;99.90
20246;DHT22;10281;54.406;18.556;2023-02-12T08:34:17;2.50;99.90
20246;DHT22;10281;54.406;18.556;2023-02-12T08:36:43;2.60;99.90
20246;DHT22;10281;54.406;18.556;2023-02-12T08:39:11;2.70;99.90
20246;DHT22;10281;54.406;18.556;2023-02-12T08:41:38;2.70;99.90
20246;DHT22;10281;54.406;18.556;2023-02-12T08:44:07;2.80;99.90
20246;DHT22;10281;54.406;18.556;2023-02-12T08:46:35;2.90;99.90
20246;DHT22;10281;54.406;18.556;2023-02-12T08:49:06;3.00;99.90
20246;DHT22;10281;54.406;18.556;2023-02-12T08:51:36;3.10;99.90
20246;DHT22;10281;54.406;18.556;2023-02-12T08:54:05;3.10;99.90
20246;DHT22;10281;54.406;18.556;2023-02-12T08:56:34;3.20;99.90
20246;DHT22;10281;54.406;18.556;2023-02-12T08:59:02;3.30;99.90
20246;DHT22;10281;54.406;18.556;2023-02-12T09:01:31;3.30;99.90
20246;DHT22;10281;54.406;18.556;2023-02-12T09:03:59;3.40;99.90
20246;DHT22;10281;54.406;18.556;2023-02-12T09:06:26;3.50;99.90
20246;DHT22;10281;54.406;18.556;2023-02-12T09:08:54;3.50;99.90
20246;DHT22;10281;54.406;18.556;2023-02-12T09:11:23;3.60;99.90
20246;DHT22;10281;54.406;18.556;2023-02-12T09:13:58;3.60;99.90
20246;DHT22;10281;54.406;18.556;2023-02-12T09:16:27;3.70;99.90
20246;DHT22;10281;54.406;18.556;2023-02-12T09:18:54;3.70;99.90
20246;DHT22;10281;54.406;18.556;2023-02-12T09:21:21;3.70;99.90
20246;DHT22;10281;54.406;18.556;2023-02-12T09:23:49;3.70;99.90
20246;DHT22;10281;54.406;18.556;2023-02-12T09:26:18;3.70;99.90
20246;DHT22;10281;54.406;18.556;2023-02-12T09:28:47;3.70;99.90
20246;DHT22;10281;54.406;18.556;2023-02-12T09:31:21;3.80;99.90
20246;DHT22;10281;54.406;18.556;2023-02-12T09:33:52;3.80;99.90
20246;DHT22;10281;54.406;18.556;2023-02-12T09:36:19;3.80;99.90
20246;DHT22;10281;54.406;18.556;2023-02-12T09:38:46;3.80;99.90
20246;DHT22;10281;54.406;18.556;2023-02-12T09:44:22;4.00;99.90
20246;DHT22;10281;54.406;18.556;2023-02-12T09:46:54;4.10;99.90
20246;DHT22;10281;54.406;18.556;2023-02-12T09:49:55;4.20;99.90
20246;DHT22;10281;54.406;18.556;2023-02-12T09:52:25;4.30;99.90
20246;DHT22;10281;54.406;18.556;2023-02-12T09:54:53;4.40;99.90
20246;DHT22;10281;54.406;18.556;2023-02-12T09:57:24;4.40;99.90
20246;DHT22;10281;54.406;18.556;2023-02-12T09:59:57;4.50;99.90
20246;DHT22;10281;54.406;18.556;2023-02-12T10:02:24;4.50;99.90
20246;DHT22;10281;54.406;18.556;2023-02-12T10:04:52;4.60;99.90
20246;DHT22;10281;54.406;18.556;2023-02-12T10:07:51;4.60;99.90
20246;DHT22;10281;54.406;18.556;2023-02-12T10:10:33;4.60;99.90
20246;DHT22;10281;54.406;18.556;2023-02-12T10:13:03;4.70;99.90
20246;DHT22;10281;54.406;18.556;2023-02-12T10:15:34;4.70;99.90
20246;DHT22;10281;54.406;18.556;2023-02-12T10:18:32;4.70;99.90
20246;DHT22;10281;54.406;18.556;2023-02-12T10:23:43;4.80;99.90
20246;DHT22;10281;54.406;18.556;2023-02-12T10:26:17;4.80;99.90
20246;DHT22;10281;54.406;18.556;2023-02-12T10:28:42;4.90;99.90
20246;DHT22;10281;54.406;18.556;2023-02-12T10:31:29;4.90;99.90
20246;DHT22;10281;54.406;18.556;2023-02-12T10:33:57;5.00;99.90
20246;DHT22;10281;54.406;18.556;2023-02-12T10:39:21;5.10;99.90
20246;DHT22;10281;54.406;18.556;2023-02-12T10:41:57;5.20;99.90
20246;DHT22;10281;54.406;18.556;2023-02-12T10:44:25;5.20;99.90
20246;DHT22;10281;54.406;18.556;2023-02-12T10:46:52;5.30;99.90
20246;DHT22;10281;54.406;18.556;2023-02-12T10:49:19;5.30;99.90
20246;DHT22;10281;54.406;18.556;2023-02-12T10:52:17;5.40;99.90
20246;DHT22;10281;54.406;18.556;2023-02-12T10:54:47;5.50;99.90
20246;DHT22;10281;54.406;18.556;2023-02-12T10:57:20;5.50;99.90
20246;DHT22;10281;54.406;18.556;2023-02-12T10:59:50;5.50;99.90
20246;DHT22;10281;54.406;18.556;2023-02-12T11:02:29;5.50;99.90
20246;DHT22;10281;54.406;18.556;2023-02-12T11:04:57;5.60;99.90
20246;DHT22;10281;54.406;18.556;2023-02-12T11:07:26;5.60;99.90
20246;DHT22;10281;54.406;18.556;2023-02-12T11:09:55;5.60;99.90
20246;DHT22;10281;54.406;18.556;2023-02-12T11:12:27;5.60;99.90
20246;DHT22;10281;54.406;18.556;2023-02-12T11:14:57;5.70;99.90
20246;DHT22;10281;54.406;18.556;2023-02-12T11:17:29;5.60;99.90
20246;DHT22;10281;54.406;18.556;2023-02-12T11:20:33;5.70;99.90
20246;DHT22;10281;54.406;18.556;2023-02-12T11:22:53;5.70;99.90
20246;DHT22;10281;54.406;18.556;2023-02-12T11:25:22;5.80;99.90
20246;DHT22;10281;54.406;18.556;2023-02-12T11:30:53;5.80;99.90
20246;DHT22;10281;54.406;18.556;2023-02-12T11:33:28;5.80;99.90
20246;DHT22;10281;54.406;18.556;2023-02-12T11:35:59;5.80;99.90
20246;DHT22;10281;54.406;18.556;2023-02-12T11:38:30;5.80;99.90
20246;DHT22;10281;54.406;18.556;2023-02-12T11:41:02;5.90;99.90
20246;DHT22;10281;54.406;18.556;2023-02-12T11:43:30;5.90;99.90
20246;DHT22;10281;54.406;18.556;2023-02-12T11:46:00;5.90;99.90
20246;DHT22;10281;54.406;18.556;2023-02-12T11:48:32;5.90;99.90
20246;DHT22;10281;54.406;18.556;2023-02-12T11:51:02;5.90;99.90
20246;DHT22;10281;54.406;18.556;2023-02-12T11:53:35;6.00;99.90
20246;DHT22;10281;54.406;18.556;2023-02-12T11:56:06;6.00;99.90
20246;DHT22;10281;54.406;18.556;2023-02-12T11:58:33;6.10;99.90
20246;DHT22;10281;54.406;18.556;2023-02-12T12:01:11;6.10;99.90
20246;DHT22;10281;54.406;18.556;2023-02-12T12:03:45;6.20;99.90
20246;DHT22;10281;54.406;18.556;2023-02-12T12:07:23;6.20;99.90
20246;DHT22;10281;54.406;18.556;2023-02-12T12:09:11;6.10;99.90
20246;DHT22;10281;54.406;18.556;2023-02-12T12:11:42;6.20;99.90
20246;DHT22;10281;54.406;18.556;2023-02-12T12:14:16;6.20;99.90
20246;DHT22;10281;54.406;18.556;2023-02-12T12:17:05;6.00;99.90
20246;DHT22;10281;54.406;18.556;2023-02-12T12:19:48;6.00;99.90
20246;DHT22;10281;54.406;18.556;2023-02-12T12:22:44;5.90;99.90
20246;DHT22;10281;54.406;18.556;2023-02-12T12:25:21;5.70;99.90
20246;DHT22;10281;54.406;18.556;2023-02-12T12:28:04;5.70;99.90
20246;DHT22;10281;54.406;18.556;2023-02-12T12:30:56;5.80;99.90
20246;DHT22;10281;54.406;18.556;2023-02-12T12:33:40;5.70;99.90
20246;DHT22;10281;54.406;18.556;2023-02-12T12:36:33;5.60;99.90
20246;DHT22;10281;54.406;18.556;2023-02-12T12:39:16;5.70;99.90
20246;DHT22;10281;54.406;18.556;2023-02-12T12:41:55;5.60;99.90
20246;DHT22;10281;54.406;18.556;2023-02-12T12:44:30;5.50;99.90
20246;DHT22;10281;54.406;18.556;2023-02-12T12:47:02;5.50;99.90
20246;DHT22;10281;54.406;18.556;2023-02-12T12:49:53;5.50;99.90
20246;DHT22;10281;54.406;18.556;2023-02-12T12:52:57;5.40;99.90
20246;DHT22;10281;54.406;18.556;2023-02-12T12:57:53;5.50;99.90
20246;DHT22;10281;54.406;18.556;2023-02-12T13:00:27;5.40;99.90
20246;DHT22;10281;54.406;18.556;2023-02-12T13:03:40;5.40;99.90
20246;DHT22;10281;54.406;18.556;2023-02-12T13:11:27;5.40;99.90
20246;DHT22;10281;54.406;18.556;2023-02-12T13:14:00;5.40;99.90
20246;DHT22;10281;54.406;18.556;2023-02-12T13:16:33;5.40;99.90
20246;DHT22;10281;54.406;18.556;2023-02-12T13:19:34;5.40;99.90
20246;DHT22;10281;54.406;18.556;2023-02-12T13:21:58;5.40;99.90
20246;DHT22;10281;54.406;18.556;2023-02-12T13:24:38;5.40;99.90
20246;DHT22;10281;54.406;18.556;2023-02-12T13:27:19;5.40;99.90
20246;DHT22;10281;54.406;18.556;2023-02-12T13:29:50;5.40;99.90
20246;DHT22;10281;54.406;18.556;2023-02-12T13:32:26;5.40;99.90
20246;DHT22;10281;54.406;18.556;2023-02-12T13:34:55;5.30;99.90
20246;DHT22;10281;54.406;18.556;2023-02-12T13:37:34;5.40;99.90
20246;DHT22;10281;54.406;18.556;2023-02-12T13:40:03;5.40;99.90
20246;DHT22;10281;54.406;18.556;2023-02-12T13:42:52;5.30;99.90
20246;DHT22;10281;54.406;18.556;2023-02-12T13:45:44;5.30;99.90
20246;DHT22;10281;54.406;18.556;2023-02-12T13:48:32;5.30;99.90
20246;DHT22;10281;54.406;18.556;2023-02-12T13:54:12;5.30;99.90
20246;DHT22;10281;54.406;18.556;2023-02-12T13:56:42;5.30;99.90
20246;DHT22;10281;54.406;18.556;2023-02-12T14:01:47;5.20;99.90
20246;DHT22;10281;54.406;18.556;2023-02-12T14:04:27;5.20;99.90
20246;DHT22;10281;54.406;18.556;2023-02-12T14:06:59;5.20;99.90
20246;DHT22;10281;54.406;18.556;2023-02-12T14:09:33;5.20;99.90
20246;DHT22;10281;54.406;18.556;2023-02-12T14:12:00;5.20;99.90
20246;DHT22;10281;54.406;18.556;2023-02-12T14:14:33;5.20;99.90
20246;DHT22;10281;54.406;18.556;2023-02-12T14:23:26;5.20;99.90
20246;DHT22;10281;54.406;18.556;2023-02-12T14:25:26;5.20;99.90
20246;DHT22;10281;54.406;18.556;2023-02-12T14:27:56;5.10;99.90
20246;DHT22;10281;54.406;18.556;2023-02-12T14:30:37;5.10;99.90
20246;DHT22;10281;54.406;18.556;2023-02-12T14:33:18;5.20;99.90
20246;DHT22;10281;54.406;18.556;2023-02-12T14:35:45;5.20;99.90
20246;DHT22;10281;54.406;18.556;2023-02-12T14:41:33;5.20;99.90
20246;DHT22;10281;54.406;18.556;2023-02-12T14:46:58;5.30;99.90
20246;DHT22;10281;54.406;18.556;2023-02-12T14:49:45;5.20;99.90
20246;DHT22;10281;54.406;18.556;2023-02-12T14:52:17;5.20;99.90
20246;DHT22;10281;54.406;18.556;2023-02-12T14:54:47;5.20;99.90
20246;DHT22;10281;54.406;18.556;2023-02-12T14:57:35;5.30;99.90
20246;DHT22;10281;54.406;18.556;2023-02-12T15:03:06;5.30;99.90
20246;DHT22;10281;54.406;18.556;2023-02-12T15:05:37;5.50;99.90
20246;DHT22;10281;54.406;18.556;2023-02-12T15:08:14;5.40;99.90
20246;DHT22;10281;54.406;18.556;2023-02-12T15:10:46;5.50;99.90
20246;DHT22;10281;54.406;18.556;2023-02-12T15:13:22;5.50;99.90
20246;DHT22;10281;54.406;18.556;2023-02-12T15:15:53;5.50;99.90
20246;DHT22;10281;54.406;18.556;2023-02-12T15:18:25;5.50;99.90
20246;DHT22;10281;54.406;18.556;2023-02-12T15:20:59;5.50;99.90
20246;DHT22;10281;54.406;18.556;2023-02-12T15:26:26;5.40;99.90
20246;DHT22;10281;54.406;18.556;2023-02-12T15:28:54;5.40;99.90
20246;DHT22;10281;54.406;18.556;2023-02-12T15:31:25;5.30;99.90
20246;DHT22;10281;54.406;18.556;2023-02-12T15:33:53;5.40;99.90
20246;DHT22;10281;54.406;18.556;2023-02-12T15:36:24;5.40;99.90
20246;DHT22;10281;54.406;18.556;2023-02-12T15:38:54;5.30;99.90
20246;DHT22;10281;54.406;18.556;2023-02-12T15:41:39;5.30;99.90
20246;DHT22;10281;54.406;18.556;2023-02-12T15:44:18;5.40;99.90
20246;DHT22;10281;54.406;18.556;2023-02-12T15:46:54;5.40;99.90
20246;DHT22;10281;54.406;18.556;2023-02-12T15:49:25;5.40;99.90
20246;DHT22;10281;54.406;18.556;2023-02-12T15:51:51;5.40;99.90
20246;DHT22;10281;54.406;18.556;2023-02-12T15:54:19;5.30;99.90
20246;DHT22;10281;54.406;18.556;2023-02-12T15:56:46;5.30;99.90
20246;DHT22;10281;54.406;18.556;2023-02-12T15:59:18;5.20;99.90
20246;DHT22;10281;54.406;18.556;2023-02-12T16:01:57;5.30;99.90
20246;DHT22;10281;54.406;18.556;2023-02-12T16:04:30;5.30;99.90
20246;DHT22;10281;54.406;18.556;2023-02-12T16:06:59;5.30;99.90
20246;DHT22;10281;54.406;18.556;2023-02-12T16:09:31;5.30;99.90
20246;DHT22;10281;54.406;18.556;2023-02-12T16:12:01;5.30;99.90
20246;DHT22;10281;54.406;18.556;2023-02-12T16:14:39;5.30;99.90
20246;DHT22;10281;54.406;18.556;2023-02-12T16:17:33;5.30;99.90
20246;DHT22;10281;54.406;18.556;2023-02-12T16:20:04;5.30;99.90
20246;DHT22;10281;54.406;18.556;2023-02-12T16:22:36;5.30;99.90
20246;DHT22;10281;54.406;18.556;2023-02-12T16:25:42;5.30;99.90
20246;DHT22;10281;54.406;18.556;2023-02-12T16:28:00;5.30;99.90
20246;DHT22;10281;54.406;18.556;2023-02-12T16:30:31;5.40;99.90
20246;DHT22;10281;54.406;18.556;2023-02-12T16:32:59;5.40;99.90
20246;DHT22;10281;54.406;18.556;2023-02-12T16:35:29;5.40;99.90
20246;DHT22;10281;54.406;18.556;2023-02-12T16:38:41;5.40;99.90
20246;DHT22;10281;54.406;18.556;2023-02-12T16:43:29;5.50;99.90
20246;DHT22;10281;54.406;18.556;2023-02-12T16:46:15;5.50;99.90
20246;DHT22;10281;54.406;18.556;2023-02-12T16:48:46;5.50;99.90
20246;DHT22;10281;54.406;18.556;2023-02-12T16:51:23;5.50;99.90
20246;DHT22;10281;54.406;18.556;2023-02-12T16:53:51;5.50;99.90
20246;DHT22;10281;54.406;18.556;2023-02-12T16:56:20;5.50;99.90
20246;DHT22;10281;54.406;18.556;2023-02-12T16:58:49;5.50;99.90
20246;DHT22;10281;54.406;18.556;2023-02-12T17:01:20;5.60;99.90
20246;DHT22;10281;54.406;18.556;2023-02-12T17:03:48;5.60;99.90
20246;DHT22;10281;54.406;18.556;2023-02-12T17:06:19;5.60;99.90